This is the latest recevied weather packets stored in our database for station/object DH0DM-13. If no packets are shown the sender has not sent any weather packets the latest 10 day(s).
| Time | Temp. | Humidity | Pressure | Rain* | Wind** | Luminosity | Snow |
|---|---|---|---|---|---|---|---|
| 1777423771 | -0.56° C | 79% | 998.9 hPa | 0 mm | 0 m/s | - | - |
| 1777423170 | 0° C | 79% | 998.9 hPa | 0 mm | 0 m/s | - | - |
| 1777422570 | 0° C | 78% | 999 hPa | 0 mm | 0 m/s | - | - |
| 1777421969 | 0.56° C | 76% | 998.8 hPa | 0 mm | 0 m/s | - | - |
| 1777421368 | 1.11° C | 74% | 998.9 hPa | 0 mm | 0 m/s | - | - |
| 1777420767 | 1.11° C | 73% | 998.9 hPa | 0 mm | 0 m/s | - | - |
| 1777420166 | 1.67° C | 71% | 998.7 hPa | 0 mm | 0 m/s | - | - |
| 1777419565 | 1.67° C | 72% | 998.6 hPa | 0 mm | 0 m/s | - | - |
| 1777418964 | 1.67° C | 71% | 998.6 hPa | 0 mm | 0 m/s | - | - |
| 1777418363 | 1.67° C | 69% | 998.4 hPa | 0 mm | 0 m/s | - | - |
| 1777417762 | 2.22° C | 68% | 998.6 hPa | 0 mm | 0 m/s | - | - |
| 1777417161 | 1.67° C | 70% | 998.5 hPa | 0 mm | 0 m/s | - | - |
| 1777416561 | 1.67° C | 66% | 998.3 hPa | 0 mm | 0 m/s | - | - |
| 1777415960 | 2.22° C | 66% | 998.5 hPa | 0 mm | 0 m/s | - | - |
| 1777415359 | 2.22° C | 67% | 998.5 hPa | 0 mm | 0 m/s | - | - |
| 1777414758 | 2.78° C | 62% | 998.2 hPa | 0 mm | 0 m/s | - | - |
| 1777414157 | 3.33° C | 61% | 998.4 hPa | 0 mm | 0 m/s | - | - |
| 1777413556 | 3.89° C | 60% | 998.4 hPa | 0 mm | 0 m/s | - | - |
| 1777412955 | 4.44° C | 59% | 998.4 hPa | 0 mm | 0 m/s | - | - |
| 1777412354 | 4.44° C | 55% | 998.1 hPa | 0 mm | 0 m/s | - | - |
| 1777411753 | 5.56° C | 51% | 998.4 hPa | 0 mm | 0 m/s | - | - |
| 1777411152 | 6.67° C | 47% | 998.1 hPa | 0 mm | 0 m/s | - | - |
| 1777410552 | 7.78° C | 41% | 998.2 hPa | 0 mm | 0 m/s | - | - |
| 1777409951 | 8.33° C | 39% | 998.2 hPa | 0 mm | 0.45 m/s, 57° | - | - |
| 1777409350 | 8.89° C | 38% | 998.1 hPa | 0 mm | 1.34 m/s, 348° | - | - |
* Rain since midnight (hover to see other rain measurements)
** Current wind speed in m/s (hover to see current wind gust speed)